ADDS METAR Data INFO
IDs: Format: Raw Decoded Include TAF

Data at: 2216 UTC 24 Jun 2018

KMOR 242155Z AUTO 23005KT 10SM CLR 25/23 A3001 RMK A01 P0003
KMOR 242135Z AUTO 25006G13KT 5SM HZ FEW042 SCT055 BKN080 25/22 A3001 RMK A01
KMOR 242115Z AUTO 20007KT 10SM FEW055 SCT065 BKN085 26/22 A3001 RMK A01
KMOR 242055Z AUTO 23010KT 10SM FEW070 26/21 A3001 RMK A01
KMOR 242035Z AUTO 21009G18KT 9SM FEW075 25/20 A3000 RMK A01
KMOR 242015Z AUTO 21007KT 10SM CLR 27/20 A2999 RMK A01
KMOR 241955Z AUTO 00000KT 10SM FEW075 FEW085 30/20 A2999 RMK A01
KMOR 241935Z AUTO 24006KT 10SM FEW050 FEW060 SCT075 30/21 A3000 RMK A01
KMOR 241915Z AUTO 24012KT 10SM FEW060 SCT075 SCT090 30/21 A3001 RMK A01
KMOR 241855Z AUTO 26006KT 10SM CLR 31/20 A3001 RMK A01
KMOR 241835Z AUTO VRB04G10KT 10SM SCT060 SCT075 SCT090 31/21 A3000 RMK A01
KMOR 241815Z AUTO 27007G13KT 250V310 10SM FEW060 SCT075 30/20 A3002 RMK A01
KMOR 241755Z AUTO 26009KT 10SM FEW070 30/21 A3002 RMK A01
KMOR 241735Z AUTO 27008G14KT 250V310 10SM CLR 30/21 A3002 RMK A01
KMOR 241715Z AUTO 28009G16KT 10SM CLR 30/21 A3002 RMK A01
KMOR 241655Z AUTO 28009KT 10SM CLR 29/21 A3003 RMK A01
KMOR 241635Z AUTO 32009KT 10SM FEW055 FEW070 29/23 A3003 RMK A01
KMOR 241615Z AUTO 30008G14KT 10SM FEW024 SCT055 BKN070 28/22 A3003 RMK A01
KMOR 241555Z AUTO 29006KT 10SM SCT024 SCT032 BKN055 28/23 A3003 RMK A01
KMOR 241535Z AUTO 26008KT 10SM FEW021 FEW026 FEW031 28/22 A3003 RMK A01
KMOR 241515Z AUTO 30008G16KT 10SM SCT020 BKN025 BKN031 28/23 A3003 RMK A01
KMOR 241455Z AUTO 27009KT 10SM SCT019 27/22 A3002 RMK A01
KMOR 241435Z AUTO 27011KT 10SM BKN017 OVC022 27/23 A3001 RMK A01
KMOR 241415Z AUTO 25009KT 10SM BKN014 OVC020 26/23 A3002 RMK A01
KMOR 241355Z AUTO 25009KT 10SM BKN014 BKN020 26/23 A3001 RMK A01
KMOR 241335Z AUTO 24010KT 10SM BKN013 BKN042 25/23 A3001 RMK A01
KMOR 241315Z AUTO 24007KT 10SM BKN010 BKN014 BKN039 24/23 A3001 RMK A01
KMOR 241255Z AUTO 24008KT 10SM OVC009 24/23 A3001 RMK A01 P0001
KMOR 241235Z AUTO VRB06KT 10SM OVC009 24/23 A3001 RMK A01
KMOR 241215Z AUTO 26005KT 10SM BKN009 OVC012 23/23 A3000 RMK A01
KMOR 241155Z AUTO 25006KT 10SM SCT012 SCT017 SCT024 23/22 A2999 RMK A01
KMOR 241135Z AUTO 27007KT 10SM FEW012 BKN017 BKN024 23/22 A2999 RMK A01
KMOR 241115Z AUTO 25004KT 10SM 23/22 A2998 RMK A01
KMOR 240835Z AUTO 35013G20KT 1 1/4SM BR SCT003 OVC017 22/21 A2997 RMK A01
KMOR 240815Z AUTO 00000KT 10SM OVC018 23/21 A2994 RMK A01
KMOR 240755Z AUTO 30004KT 10SM BKN018 BKN023 OVC033 23/20 A2993 RMK A01
KMOR 240735Z AUTO VRB06KT 10SM BKN017 BKN023 OVC036 23/20 A2995 RMK A01
KMOR 240715Z AUTO 26004KT 10SM OVC017 23/20 A2995 RMK A01
KMOR 240655Z AUTO VRB04KT 10SM OVC017 23/20 A2995 RMK A01
KMOR 240635Z AUTO 23006KT 10SM OVC019 23/20 A2995 RMK A01
KMOR 240615Z AUTO 27005KT 10SM BKN019 BKN031 OVC060 23/20 A2996 RMK A01
KMOR 240555Z AUTO 26006KT 10SM SCT019 BKN027 OVC060 23/20 A2996 RMK A01
KMOR 240535Z AUTO 25005G12KT 10SM SCT019 BKN030 OVC045 23/20 A2996 RMK A01
KMOR 240515Z AUTO 27007KT 10SM FEW025 SCT030 OVC043 23/20 A2996 RMK A01
KMOR 240455Z AUTO 28009KT 10SM BKN042 OVC048 23/20 A2996 RMK A01
KMOR 240435Z AUTO 28007KT 10SM FEW022 FEW033 SCT048 23/20 A2996 RMK A01
KMOR 240415Z AUTO 26007KT 10SM FEW036 23/20 A2996 RMK A01
KMOR 240355Z AUTO 27009KT 10SM BKN034 23/20 A2996 RMK A01
KMOR 240335Z AUTO 28007KT 10SM FEW025 OVC032 23/20 A2996 RMK A01
KMOR 240315Z AUTO 27008G13KT 10SM FEW026 OVC032 23/20 A2995 RMK A01
KMOR 240255Z AUTO 27010G15KT 10SM BKN029 OVC038 23/19 A2995 RMK A01
KMOR 240235Z AUTO 26006KT 10SM OVC039 23/19 A2994 RMK A01
KMOR 240215Z AUTO 25008KT 10SM OVC040 23/19 A2993 RMK A01
KMOR 240155Z AUTO 25007KT 10SM OVC039 23/19 A2992 RMK A01
KMOR 240135Z AUTO 24007KT 10SM FEW035 BKN044 23/19 A2991 RMK A01
KMOR 240115Z AUTO 26008KT 10SM CLR 23/19 A2991 RMK A01
KMOR 240055Z AUTO 24013KT 10SM CLR 23/18 A2990 RMK A01
KMOR 240035Z AUTO 24009KT 10SM CLR 24/18 A2990 RMK A01
KMOR 240015Z AUTO 24010KT 10SM CLR 24/18 A2990 RMK A01
KMOR 232355Z AUTO 24012KT 10SM CLR 24/18 A2989 RMK A01
KMOR 232335Z AUTO 24011G18KT 10SM CLR 24/18 A2989 RMK A01
KMOR 232315Z AUTO 23013KT 10SM CLR 24/18 A2989 RMK A01
KMOR 232255Z AUTO 25014G23KT 10SM CLR 25/18 A2988 RMK A01
KMOR 232235Z AUTO 23019KT 10SM CLR 26/19 A2989 RMK A01
KMOR 232215Z AUTO 23012G19KT 10SM FEW040 28/20 A2987 RMK A01
KMOR 232155Z AUTO 24009KT CLR 29/19 A2986 RMK A01
KMOR 232135Z AUTO 22011G16KT 10SM FEW046 30/19 A2986 RMK A01
KMOR 232115Z AUTO 23013KT 10SM SCT046 SCT060 29/19 A2988 RMK A01
KMOR 232055Z AUTO 25013G21KT 10SM FEW060 29/18 A2989 RMK A01
KMOR 232035Z AUTO 23013KT 10SM FEW047 30/18 A2989 RMK A01
KMOR 232015Z AUTO 23009G19KT 10SM SCT047 30/18 A2990 RMK A01
KMOR 231955Z AUTO 23010KT 10SM FEW046 30/18 A2990 RMK A01
KMOR 231935Z AUTO 28010G17KT 10SM CLR 30/18 A2991 RMK A01
KMOR 231915Z AUTO 25012KT 10SM FEW047 FEW055 30/17 A2991 RMK A01
KMOR 231855Z AUTO 26011G19KT 230V290 10SM SCT043 SCT050 SCT075 29/18 A2992 RMK A01
KMOR 231835Z AUTO 27013KT 10SM SCT044 SCT050 BKN075 29/18 A2993 RMK A01
KMOR 231815Z AUTO 24015KT 10SM FEW041 SCT049 29/17 A2993 RMK A01
KMOR 231755Z AUTO 25012G17KT 10SM FEW041 29/17 A2992 RMK A01
KMOR 231735Z AUTO 26007G13KT 230V290 10SM FEW037 SCT042 SCT049 28/18 A2993 RMK A01
KMOR 231715Z AUTO 23013G18KT 210V270 10SM BKN036 BKN043 BKN049 27/18 A2994 RMK A01
KMOR 231655Z AUTO 26010G15KT 10SM SCT037 SCT070 27/18 A2994 RMK A01
KMOR 231635Z AUTO 28012KT 10SM SCT033 BKN041 SCT065 27/18 A2994 RMK A01
KMOR 231615Z AUTO 26011KT 10SM FEW031 SCT036 BKN043 26/18 A2994 RMK A01
KMOR 231555Z AUTO 27012G18KT 10SM SCT030 SCT036 BKN060 27/18 A2994 RMK A01
KMOR 231535Z AUTO 25009G15KT 10SM BKN029 BKN036 25/18 A2993 RMK A01
KMOR 231515Z AUTO 23008G15KT 200V270 10SM SCT025 SCT030 BKN034 26/19 A2993 RMK A01
KMOR 231455Z AUTO 27010KT 240V300 10SM BKN024 BKN033 25/18 A2992 RMK A01
KMOR 231435Z AUTO 24010G16KT 10SM SCT021 SCT027 BKN034 24/19 A2992 RMK A01
KMOR 231415Z AUTO 24010KT 10SM SCT019 BKN025 BKN029 23/19 A2992 RMK A01
KMOR 231355Z AUTO 24011KT 10SM FEW019 FEW032 BKN085 24/19 A2993 RMK A01
KMOR 231335Z AUTO 26009G16KT 10SM FEW019 SCT025 BKN035 23/19 A2993 RMK A01
KMOR 231315Z AUTO 26008G14KT 230V290 10SM SCT017 BKN024 BKN034 23/19 A2992 RMK A01
KMOR 231255Z AUTO 25009KT 10SM BKN013 23/19 A2992 RMK A01
KMOR 231235Z AUTO 25008KT 210V290 10SM BKN012 OVC018 22/20 A2992 RMK A01
KMOR 231215Z AUTO 24010KT 10SM SCT009 OVC015 22/20 A2991 RMK A01
KMOR 231155Z AUTO 25008KT 10SM BKN013 OVC017 22/20 A2991 RMK A01
KMOR 231135Z AUTO VRB06KT 10SM BKN012 OVC017 21/20 A2990 RMK A01
KMOR 231115Z AUTO 27007KT 10SM BKN009 OVC013 21/20 A2990 RMK A01
KMOR 231055Z AUTO 27007KT 10SM SCT009 OVC013 21/20 A2989 RMK A01
KMOR 231035Z AUTO 29006KT 10SM SCT008 BKN013 OVC065 21/20 A2988 RMK A01